Terminal Aerodrome Forecast
Issued by NWS

Home | Current Version | Previous Version | Text Only | Print | Product List | Glossary On
Versions: 1 2 3 4 5 6 7 8 9 10 11 12 13
000
FTUS45 KTFX 281100
TAFHVR
TAF
KHVR 281120Z 2812/2912 24010KT P6SM SKC
     FM281900 28012G20KT P6SM BKN120
     FM290100 32014KT P6SM SCT070 BKN090
     FM290400 01008KT P6SM VCSH SCT040 BKN060 PROB30 2906/2910 -SHRA
      SCT025 OVC040=

USA.gov is the U.S. government's official web portal to all federal, state and local government web resources and services.